Sorriso, Brazil
Current Conditions -  °F | °C
As of 6:00 PM on Sunday 21 Dec 2014 (Local Time) from SBAT Reporting Station
Broken Clouds Broken Clouds  
Wind Chill: 28°   Ceiling: 10000
Heat Index: 32°   Visibility: 6mi
Dew Point: 24°   Wind: 3mph
Humidity: 79%   Direction: 240°WSW
Pressure: 29.8"   Gusts: NA
Location:  12.6°S, 55.75°W
Report Text: SBAT 212100Z 24003KT 9999 SCT030 FEW035TCU BKN100 28/24 Q1009 RETS
Loading
Personal Weather Stations






























Interactive Weather Map New forecast layout! Learn more

10-Day Weather Forecast

Advertisements
Track Severe Weather on mobile